Aviation Digital Data Service (ADDS)

Output produced by METARs form (1959 UTC 21 September 2021)
found at http://www.aviationweather.gov/metar/data/
 
KATL 211938Z 2120/2224 04005KT P6SM SCT025 BKN050 
     FM220300 09004KT P6SM BKN008 
     FM220800 15003KT 5SM BR VCSH BKN004 
     FM221300 22005KT P6SM -SHRA BKN006 
     TEMPO 2214/2217 4SM -TSRA BKN010CB 
     FM221700 32013G22KT P6SM SCT025 
     FM222100 32014KT P6SM SCT100